createdAt,value
2018-10-11T00:01:06.897Z,100.00
2018-10-11T00:03:36.292Z,100.00
2018-10-11T00:06:05.715Z,100.00
2018-10-11T00:08:35.381Z,100.00
2018-10-11T00:11:04.803Z,100.00
2018-10-11T00:13:34.221Z,100.00
2018-10-11T00:16:03.645Z,100.00
2018-10-11T00:18:33.971Z,100.00
2018-10-11T00:21:03.400Z,100.00
2018-10-11T00:23:34.069Z,100.00
2018-10-11T00:26:03.494Z,100.00
2018-10-11T00:28:34.128Z,100.00
2018-10-11T00:31:03.576Z,100.00
2018-10-11T00:33:34.161Z,100.00
2018-10-11T00:36:03.599Z,100.00
2018-10-11T00:38:34.020Z,100.00
2018-10-11T00:41:03.452Z,100.00
2018-10-11T00:43:34.100Z,100.00
2018-10-11T00:46:03.496Z,100.00
2018-10-11T00:48:34.015Z,100.00
2018-10-11T00:51:03.440Z,100.00
2018-10-11T00:53:34.080Z,100.00
2018-10-11T00:56:03.464Z,100.00
2018-10-11T00:58:34.100Z,100.00
2018-10-11T01:01:03.495Z,100.00
2018-10-11T01:03:34.159Z,100.00
2018-10-11T01:06:03.627Z,100.00
2018-10-11T01:08:34.263Z,100.00
2018-10-11T01:11:03.675Z,100.00
2018-10-11T01:13:34.420Z,100.00
2018-10-11T01:16:03.808Z,100.00
2018-10-11T01:18:34.215Z,100.00
2018-10-11T01:21:03.646Z,100.00
2018-10-11T01:23:34.290Z,100.00
2018-10-11T01:26:03.680Z,100.00
2018-10-11T01:28:34.326Z,100.00
2018-10-11T01:31:08.875Z,100.00
2018-10-11T01:33:38.562Z,100.00
2018-10-11T01:36:08.016Z,100.00
2018-10-11T01:38:37.440Z,100.00
2018-10-11T01:41:07.240Z,100.00
2018-10-11T01:43:36.651Z,100.00
2018-10-11T01:46:06.091Z,100.00
2018-10-11T01:48:35.515Z,100.00
2018-10-11T01:51:04.923Z,100.00
2018-10-11T01:53:34.647Z,100.00
2018-10-11T01:56:04.067Z,100.00
2018-10-11T01:58:34.467Z,100.00
2018-10-11T02:01:03.870Z,100.00
2018-10-11T02:03:34.526Z,100.00
2018-10-11T02:06:03.948Z,100.00
2018-10-11T02:08:34.595Z,100.00
2018-10-11T02:11:04.052Z,100.00
2018-10-11T02:13:34.608Z,100.00
2018-10-11T02:16:04.012Z,100.00
2018-10-11T02:18:34.638Z,100.00
2018-10-11T02:21:04.043Z,100.00
2018-10-11T02:23:34.804Z,100.00
2018-10-11T02:26:04.216Z,100.00
2018-10-11T02:28:34.664Z,100.00
2018-10-11T02:31:04.082Z,100.00
2018-10-11T02:33:34.607Z,100.00
2018-10-11T02:36:04.021Z,100.00
2018-10-11T02:38:34.651Z,100.00
2018-10-11T02:41:04.060Z,100.00
2018-10-11T02:43:34.688Z,100.00
2018-10-11T02:46:04.108Z,100.00
2018-10-11T02:48:34.640Z,100.00
2018-10-11T02:51:04.021Z,100.00
2018-10-11T02:53:34.999Z,100.00
2018-10-11T02:56:05.212Z,100.00
2018-10-11T02:58:51.900Z,100.00
2018-10-11T03:01:21.632Z,100.00
2018-10-11T03:03:57.576Z,100.00
2018-10-11T03:06:27.031Z,100.00
2018-10-11T03:08:56.493Z,100.00
2018-10-11T03:11:25.927Z,100.00
2018-10-11T03:13:55.534Z,100.00
2018-10-11T03:16:24.943Z,100.00
2018-10-11T03:18:54.351Z,100.00
2018-10-11T03:21:23.767Z,100.00
2018-10-11T03:23:53.163Z,100.00
2018-10-11T03:26:22.636Z,100.00
2018-10-11T03:28:52.044Z,100.00
2018-10-11T03:31:21.442Z,100.00
2018-10-11T03:33:50.855Z,100.00
2018-10-11T03:36:20.237Z,100.00
2018-10-11T03:38:49.628Z,100.00
2018-10-11T03:41:19.064Z,100.00
2018-10-11T03:43:48.480Z,100.00
2018-10-11T03:46:17.929Z,100.00
2018-10-11T03:48:47.316Z,100.00
2018-10-11T03:51:16.719Z,100.00
2018-10-11T03:53:46.144Z,100.00
2018-10-11T03:56:15.632Z,100.00
2018-10-11T03:58:45.163Z,100.00
2018-10-11T04:01:14.599Z,100.00
2018-10-11T04:03:44.147Z,100.00
2018-10-11T04:06:13.575Z,100.00
2018-10-11T04:08:42.968Z,100.00
2018-10-11T04:11:12.364Z,100.00
2018-10-11T04:13:41.820Z,100.00
2018-10-11T04:16:11.212Z,100.00
2018-10-11T04:18:40.935Z,100.00
2018-10-11T04:21:10.924Z,100.00
2018-10-11T04:23:40.328Z,100.00
2018-10-11T04:26:09.728Z,100.00
2018-10-11T04:28:39.124Z,100.00
2018-10-11T04:31:08.667Z,100.00
2018-10-11T04:33:38.107Z,100.00
2018-10-11T04:36:07.587Z,100.00
2018-10-11T04:38:36.978Z,100.00
2018-10-11T04:41:07.043Z,100.00
2018-10-11T04:43:36.575Z,100.00
2018-10-11T04:46:05.979Z,100.00
2018-10-11T04:48:35.452Z,100.00
2018-10-11T04:51:04.988Z,100.00
2018-10-11T04:53:35.772Z,100.00
2018-10-11T04:56:05.104Z,100.00
2018-10-11T04:58:35.623Z,100.00
2018-10-11T05:01:05.047Z,100.00
2018-10-11T05:03:35.742Z,100.00
2018-10-11T05:06:05.287Z,100.00
2018-10-11T05:08:35.667Z,100.00
2018-10-11T05:11:05.127Z,100.00
2018-10-11T05:13:41.599Z,100.00
2018-10-11T05:16:11.087Z,100.00
2018-10-11T05:18:42.792Z,100.00
2018-10-11T05:21:12.235Z,100.00
2018-10-11T05:23:42.612Z,100.00
2018-10-11T05:26:12.105Z,100.00
2018-10-11T05:28:41.928Z,100.00
2018-10-11T05:31:12.045Z,100.00
2018-10-11T05:33:42.618Z,100.00
2018-10-11T05:36:12.483Z,100.00
2018-10-11T05:38:42.064Z,100.00
2018-10-11T05:41:11.887Z,100.00
2018-10-11T05:43:41.620Z,100.00
2018-10-11T05:46:20.219Z,100.00
2018-10-11T05:48:49.664Z,100.00
2018-10-11T05:51:19.837Z,100.00
2018-10-11T05:53:49.431Z,100.00
2018-10-11T05:56:20.389Z,100.00
2018-10-11T05:58:51.199Z,100.00
2018-10-11T06:01:20.922Z,100.00
2018-10-11T06:03:50.411Z,100.00
2018-10-11T06:06:19.936Z,100.00
2018-10-11T06:08:49.438Z,100.00
2018-10-11T06:11:19.283Z,100.00
2018-10-11T06:13:49.517Z,100.00
2018-10-11T06:16:18.980Z,100.00
2018-10-11T06:18:48.448Z,100.00
2018-10-11T06:21:17.869Z,100.00
2018-10-11T06:23:47.287Z,100.00
2018-10-11T06:26:16.708Z,100.00
2018-10-11T06:28:46.145Z,100.00
2018-10-11T06:31:15.700Z,100.00
2018-10-11T06:33:45.539Z,100.00
2018-10-11T06:36:15.652Z,100.00
2018-10-11T06:38:45.432Z,100.00
2018-10-11T06:41:15.045Z,100.00
2018-10-11T06:43:44.580Z,100.00
2018-10-11T06:46:14.412Z,100.00
2018-10-11T06:48:43.856Z,100.00
2018-10-11T06:51:13.336Z,100.00
2018-10-11T06:53:42.855Z,100.00
2018-10-11T06:56:12.244Z,100.00
2018-10-11T06:58:41.651Z,100.00
2018-10-11T07:01:11.075Z,100.00
2018-10-11T07:03:40.457Z,100.00
2018-10-11T07:06:09.860Z,100.00
2018-10-11T07:08:39.270Z,100.00
2018-10-11T07:11:09.048Z,100.00
2018-10-11T07:13:38.564Z,100.00
2018-10-11T07:16:07.980Z,100.00
2018-10-11T07:18:37.435Z,100.00
2018-10-11T07:21:06.824Z,100.00
2018-10-11T07:23:36.263Z,100.00
2018-10-11T07:26:05.704Z,100.00
2018-10-11T07:28:36.271Z,100.00
2018-10-11T07:31:05.669Z,100.00
2018-10-11T07:33:36.192Z,100.00
2018-10-11T07:36:05.576Z,100.00
2018-10-11T07:38:36.123Z,100.00
2018-10-11T07:41:05.615Z,100.00
2018-10-11T07:43:36.288Z,100.00
2018-10-11T07:46:05.676Z,100.00
2018-10-11T07:48:36.104Z,100.00
2018-10-11T07:51:05.499Z,100.00
2018-10-11T07:53:36.196Z,100.00
2018-10-11T07:56:05.603Z,100.00
2018-10-11T07:58:36.139Z,100.00
2018-10-11T08:01:05.588Z,100.00
2018-10-11T08:03:36.199Z,100.00
2018-10-11T08:06:06.019Z,100.00
2018-10-11T08:08:36.116Z,100.00
2018-10-11T08:11:05.780Z,100.00
2018-10-11T08:13:36.295Z,100.00
2018-10-11T08:16:06.316Z,100.00
2018-10-11T08:18:36.294Z,100.00
2018-10-11T08:21:05.644Z,100.00
2018-10-11T08:23:36.651Z,100.00
2018-10-11T08:26:06.303Z,100.00
2018-10-11T08:28:36.444Z,100.00
2018-10-11T08:31:05.964Z,100.00
2018-10-11T08:33:36.358Z,100.00
2018-10-11T08:36:05.895Z,100.00
2018-10-11T08:38:36.444Z,100.00
2018-10-11T08:41:05.909Z,100.00
2018-10-11T08:43:36.457Z,100.00
2018-10-11T08:46:05.971Z,98.85
2018-10-11T08:48:36.332Z,99.23
2018-10-11T08:51:05.828Z,98.81
2018-10-11T08:53:36.610Z,98.50
2018-10-11T08:56:06.238Z,98.06
2018-10-11T08:58:36.503Z,98.57
2018-10-11T09:01:06.003Z,97.93
2018-10-11T09:03:36.638Z,95.83
2018-10-11T09:06:05.967Z,95.23
2018-10-11T09:08:36.616Z,94.84
2018-10-11T09:11:06.408Z,94.37
2018-10-11T09:13:36.552Z,94.27
2018-10-11T09:16:05.967Z,93.55
2018-10-11T09:18:36.548Z,92.89
2018-10-11T09:21:06.647Z,92.24
2018-10-11T09:23:36.599Z,91.19
2018-10-11T09:26:06.391Z,90.37
2018-10-11T09:28:36.575Z,89.60
2018-10-11T09:31:06.205Z,87.97
2018-10-11T09:33:36.521Z,87.10
2018-10-11T09:36:06.029Z,85.03
2018-10-11T09:38:36.564Z,84.72
2018-10-11T09:41:06.184Z,84.24
2018-10-11T09:43:36.584Z,83.69
2018-10-11T09:46:06.063Z,81.91
2018-10-11T09:48:36.607Z,79.83
2018-10-11T09:51:05.984Z,79.82
2018-10-11T09:53:36.648Z,78.20
2018-10-11T09:56:06.404Z,78.53
2018-10-11T09:58:36.566Z,77.30
2018-10-11T10:01:11.200Z,76.00
2018-10-11T10:03:40.628Z,74.78
2018-10-11T10:06:10.071Z,74.74
2018-10-11T10:08:39.550Z,75.32
2018-10-11T10:11:09.168Z,73.53
2018-10-11T10:13:38.760Z,73.86
2018-10-11T10:16:08.239Z,72.10
2018-10-11T10:18:37.677Z,72.29
2018-10-11T10:21:07.140Z,71.40
2018-10-11T10:23:36.824Z,70.79
2018-10-11T10:26:06.253Z,71.08
2018-10-11T10:28:36.900Z,70.78
2018-10-11T10:31:06.324Z,69.56
2018-10-11T10:33:36.732Z,68.43
2018-10-11T10:36:06.244Z,67.62
2018-10-11T10:38:36.764Z,68.89
2018-10-11T10:41:06.199Z,68.45
2018-10-11T10:43:36.997Z,68.26
2018-10-11T10:46:06.419Z,66.88
2018-10-11T10:48:36.820Z,67.39
2018-10-11T10:51:06.175Z,67.15
2018-10-11T10:53:36.865Z,66.88
2018-10-11T10:56:06.900Z,66.30
2018-10-11T10:58:36.861Z,66.70
2018-10-11T11:01:06.295Z,67.23
2018-10-11T11:03:36.867Z,66.94
2018-10-11T11:06:06.328Z,67.23
2018-10-11T11:08:37.013Z,65.18
2018-10-11T11:11:06.731Z,66.30
2018-10-11T11:13:36.844Z,65.40
2018-10-11T11:16:06.284Z,65.22
2018-10-11T11:18:36.843Z,64.95
2018-10-11T11:21:06.573Z,62.69
2018-10-11T11:23:36.871Z,64.83
2018-10-11T11:26:06.316Z,64.20
2018-10-11T11:28:36.869Z,64.61
2018-10-11T11:31:06.324Z,63.06
2018-10-11T11:33:36.895Z,62.86
2018-10-11T11:36:06.316Z,63.54
2018-10-11T11:38:36.764Z,61.42
2018-10-11T11:41:06.204Z,61.89
2018-10-11T11:43:36.891Z,62.63
2018-10-11T11:46:06.432Z,60.47
2018-10-11T11:48:36.910Z,60.09
2018-10-11T11:51:06.895Z,59.66
2018-10-11T11:53:37.416Z,58.08
2018-10-11T11:56:07.028Z,57.79
2018-10-11T11:58:37.048Z,58.54
2018-10-11T12:01:06.673Z,58.19
2018-10-11T12:03:37.279Z,56.48
2018-10-11T12:06:07.044Z,56.14
2018-10-11T12:08:37.680Z,56.17
2018-10-11T12:11:07.690Z,55.10
2018-10-11T12:13:37.272Z,53.86
2018-10-11T12:16:06.756Z,54.29
2018-10-11T12:18:36.890Z,53.91
2018-10-11T12:21:06.328Z,52.97
2018-10-11T12:23:36.900Z,53.51
2018-10-11T12:26:06.520Z,53.13
2018-10-11T12:28:37.214Z,52.19
2018-10-11T12:31:06.927Z,52.02
2018-10-11T12:33:37.064Z,50.63
2018-10-11T12:36:06.615Z,50.05
2018-10-11T12:38:37.151Z,50.33
2018-10-11T12:41:06.561Z,48.26
2018-10-11T12:43:37.172Z,49.32
2018-10-11T12:46:06.839Z,49.63
2018-10-11T12:48:37.056Z,49.07
2018-10-11T12:51:06.799Z,48.60
2018-10-11T12:53:39.883Z,49.10
2018-10-11T12:56:06.917Z,48.49
2018-10-11T12:58:37.139Z,49.25
2018-10-11T13:01:06.651Z,49.07
2018-10-11T13:03:37.079Z,47.84
2018-10-11T13:06:06.511Z,47.17
2018-10-11T13:08:37.200Z,49.13
2018-10-11T13:11:06.646Z,46.90
2018-10-11T13:13:37.319Z,46.43
2018-10-11T13:16:06.787Z,46.41
2018-10-11T13:18:37.301Z,46.01
2018-10-11T13:21:06.752Z,45.17
2018-10-11T13:23:37.347Z,45.88
2018-10-11T13:26:06.815Z,48.17
2018-10-11T13:28:37.524Z,45.50
2018-10-11T13:31:06.941Z,45.70
2018-10-11T13:33:37.555Z,47.17
2018-10-11T13:36:07.008Z,46.84
2018-10-11T13:38:37.494Z,47.43
2018-10-11T13:41:07.006Z,45.77
2018-10-11T13:43:37.751Z,46.22
2018-10-11T13:46:07.230Z,45.63
2018-10-11T13:48:37.690Z,47.15
2018-10-11T13:51:07.263Z,46.44
2018-10-11T13:53:38.173Z,46.49
2018-10-11T13:56:07.867Z,47.86
2018-10-11T13:58:37.662Z,49.42
2018-10-11T14:01:07.584Z,50.32
2018-10-11T14:03:37.864Z,49.99
2018-10-11T14:06:07.419Z,50.11
2018-10-11T14:08:38.079Z,48.93
2018-10-11T14:11:07.766Z,48.47
2018-10-11T14:13:38.693Z,48.83
2018-10-11T14:16:08.183Z,46.87
2018-10-11T14:18:38.663Z,48.89
2018-10-11T14:21:09.301Z,46.00
2018-10-11T14:23:38.932Z,45.59
2018-10-11T14:26:09.071Z,41.79
2018-10-11T14:28:38.330Z,39.74
2018-10-11T14:31:07.751Z,40.33
2018-10-11T14:33:38.231Z,39.03
2018-10-11T14:36:08.101Z,39.45
2018-10-11T14:38:38.134Z,39.46
2018-10-11T14:41:07.847Z,38.90
2018-10-11T14:43:39.584Z,38.06
2018-10-11T14:46:09.189Z,38.84
2018-10-11T14:48:38.751Z,39.10
2018-10-11T14:51:09.223Z,42.59
2018-10-11T14:53:38.687Z,42.24
2018-10-11T14:56:08.244Z,41.61
2018-10-11T14:58:38.482Z,41.86
2018-10-11T15:01:07.912Z,41.43
2018-10-11T15:03:38.368Z,43.82
2018-10-11T15:06:07.641Z,44.90
2018-10-11T15:08:38.323Z,48.02
2018-10-11T15:11:08.120Z,48.71
2018-10-11T15:13:38.380Z,51.58
2018-10-11T15:16:07.909Z,51.68
2018-10-11T15:18:39.432Z,51.26
2018-10-11T15:21:09.267Z,53.43
2018-10-11T15:23:38.715Z,53.71
2018-10-11T15:26:08.192Z,54.78
2018-10-11T15:28:38.479Z,54.48
2018-10-11T15:31:07.901Z,54.36
2018-10-11T15:33:38.411Z,54.34
2018-10-11T15:36:07.915Z,54.57
2018-10-11T15:38:38.512Z,55.16
2018-10-11T15:41:07.924Z,54.78
2018-10-11T15:43:38.425Z,55.82
2018-10-11T15:46:08.177Z,55.97
2018-10-11T15:48:38.379Z,57.19
2018-10-11T15:51:07.855Z,57.95
2018-10-11T15:53:41.013Z,57.29
2018-10-11T15:56:10.436Z,58.34
2018-10-11T15:58:39.925Z,59.63
2018-10-11T16:01:09.291Z,59.65
2018-10-11T16:03:38.717Z,60.57
2018-10-11T16:06:08.319Z,60.15
2018-10-11T16:08:38.438Z,61.91
2018-10-11T16:11:07.888Z,62.30
2018-10-11T16:13:38.537Z,63.22
2018-10-11T16:16:07.989Z,63.74
2018-10-11T16:18:38.463Z,63.70
2018-10-11T16:21:08.040Z,65.34
2018-10-11T16:23:38.488Z,65.78
2018-10-11T16:26:07.904Z,65.47
2018-10-11T16:28:38.623Z,65.70
2018-10-11T16:31:08.031Z,65.95
2018-10-11T16:33:38.432Z,68.75
2018-10-11T16:36:07.961Z,69.54
2018-10-11T16:38:38.567Z,70.29
2018-10-11T16:41:08.006Z,70.58
2018-10-11T16:43:38.484Z,70.62
2018-10-11T16:46:07.991Z,72.21
2018-10-11T16:48:38.387Z,72.02
2018-10-11T16:51:07.900Z,70.95
2018-10-11T16:53:38.392Z,71.74
2018-10-11T16:56:07.854Z,71.19
2018-10-11T16:58:38.500Z,71.85
2018-10-11T17:01:08.347Z,74.15
2018-10-11T17:03:38.422Z,73.87
2018-10-11T17:06:07.976Z,74.32
2018-10-11T17:08:38.444Z,75.65
2018-10-11T17:11:08.097Z,74.81
2018-10-11T17:13:38.467Z,75.50
2018-10-11T17:16:07.976Z,75.99
2018-10-11T17:18:38.456Z,76.80
2018-10-11T17:21:07.980Z,77.70
2018-10-11T17:23:38.656Z,77.36
2018-10-11T17:26:08.109Z,76.51
2018-10-11T17:28:38.608Z,76.70
2018-10-11T17:31:08.328Z,76.53
2018-10-11T17:33:38.707Z,77.19
2018-10-11T17:36:08.124Z,76.95
2018-10-11T17:38:38.785Z,77.19
2018-10-11T17:41:08.368Z,78.26
2018-10-11T17:43:38.602Z,78.01
2018-10-11T17:46:08.348Z,78.98
2018-10-11T17:48:39.113Z,78.51
2018-10-11T17:51:08.781Z,79.14
2018-10-11T17:53:39.269Z,79.43
2018-10-11T17:56:09.280Z,80.00
2018-10-11T17:58:39.232Z,80.72
2018-10-11T18:01:08.788Z,80.35
2018-10-11T18:03:39.701Z,79.91
2018-10-11T18:06:10.156Z,80.57
2018-10-11T18:08:41.563Z,79.87
2018-10-11T18:11:12.930Z,80.26
2018-10-11T18:13:45.440Z,80.39
2018-10-11T18:16:16.824Z,81.11
2018-10-11T18:18:49.171Z,82.08
2018-10-11T18:21:21.685Z,82.71
2018-10-11T18:23:54.228Z,82.35
2018-10-11T18:26:25.499Z,82.61
2018-10-11T18:28:57.740Z,83.00
2018-10-11T18:31:30.038Z,82.63
2018-10-11T18:34:02.711Z,83.02
2018-10-11T18:36:35.261Z,83.06
2018-10-11T18:39:13.550Z,83.25
2018-10-11T18:41:46.537Z,83.29
2018-10-11T18:44:18.921Z,83.99
2018-10-11T18:46:51.427Z,83.99
2018-10-11T18:49:24.057Z,84.27
2018-10-11T18:51:56.731Z,84.17
2018-10-11T18:54:29.422Z,84.83
2018-10-11T18:57:02.004Z,84.33
2018-10-11T18:59:34.480Z,86.05
2018-10-11T19:02:06.906Z,85.63
2018-10-11T19:04:39.503Z,86.32
2018-10-11T19:07:12.268Z,86.89
2018-10-11T19:09:44.870Z,86.57
2018-10-11T19:12:17.420Z,86.97
2018-10-11T19:14:49.956Z,87.68
2018-10-11T19:17:23.347Z,87.66
2018-10-11T19:19:56.306Z,87.46
2018-10-11T19:22:28.798Z,87.33
2018-10-11T19:25:01.353Z,86.54
2018-10-11T19:27:34.168Z,86.53
2018-10-11T19:30:08.080Z,86.16
2018-10-11T19:32:40.756Z,85.91
2018-10-11T19:35:13.567Z,86.73
2018-10-11T19:37:45.931Z,87.05
2018-10-11T19:40:18.523Z,85.65
2018-10-11T19:42:51.066Z,86.35
2018-10-11T19:45:24.035Z,86.02
2018-10-11T19:47:56.519Z,86.38
2018-10-11T19:50:29.070Z,86.72
2018-10-11T19:53:01.551Z,87.30
2018-10-11T19:55:34.288Z,87.88
2018-10-11T19:58:06.879Z,89.22
2018-10-11T20:00:39.605Z,88.96
2018-10-11T20:03:13.284Z,88.59
2018-10-11T20:05:45.834Z,88.43
2018-10-11T20:08:18.635Z,88.81
2018-10-11T20:10:51.137Z,89.22
2018-10-11T20:13:23.848Z,89.09
2018-10-11T20:15:56.956Z,89.00
2018-10-11T20:18:29.352Z,89.49
2018-10-11T20:21:02.163Z,89.05
2018-10-11T20:23:35.120Z,88.91
2018-10-11T20:26:07.721Z,90.02
2018-10-11T20:33:46.256Z,90.87
2018-10-11T20:36:18.792Z,90.93
2018-10-11T20:38:51.588Z,90.75
2018-10-11T20:41:24.342Z,90.04
2018-10-11T20:43:57.092Z,89.65
2018-10-11T20:46:30.045Z,89.65
2018-10-11T20:49:02.826Z,89.08
2018-10-11T20:51:35.406Z,89.24
2018-10-11T20:54:08.551Z,89.09
2018-10-11T20:56:42.876Z,89.31
2018-10-11T20:59:15.730Z,89.55
2018-10-11T21:01:48.527Z,89.75
2018-10-11T21:04:21.412Z,91.13
2018-10-11T21:06:54.161Z,90.79
2018-10-11T21:09:27.030Z,91.67
2018-10-11T21:11:59.583Z,90.65
2018-10-11T21:14:32.822Z,91.34
2018-10-11T21:17:05.693Z,90.24
2018-10-11T21:19:37.842Z,90.12
2018-10-11T21:22:09.969Z,90.72
2018-10-11T21:24:40.139Z,91.12
2018-10-11T21:27:09.804Z,91.05
2018-10-11T21:29:39.437Z,93.27
2018-10-11T21:32:09.223Z,94.03
2018-10-11T21:34:39.287Z,93.65
2018-10-11T21:37:09.235Z,93.48
2018-10-11T21:39:39.212Z,93.05
2018-10-11T21:42:09.346Z,93.25
2018-10-11T21:44:39.485Z,93.08
2018-10-11T21:47:09.869Z,92.72
2018-10-11T21:49:40.479Z,93.19
2018-10-11T21:52:10.848Z,92.82
2018-10-11T21:54:41.171Z,92.94
2018-10-11T21:57:10.828Z,93.18
2018-10-11T21:59:40.480Z,93.21
2018-10-11T22:02:10.087Z,93.51
2018-10-11T22:04:40.141Z,93.04
2018-10-11T22:07:10.253Z,93.75
2018-10-11T22:09:39.872Z,93.71
2018-10-11T22:12:09.669Z,94.09
2018-10-11T22:14:39.339Z,94.24
2018-10-11T22:17:09.040Z,93.43
2018-10-11T22:19:38.707Z,93.38
2018-10-11T22:22:08.316Z,93.58
2018-10-11T22:24:37.934Z,93.99
2018-10-11T22:27:07.580Z,93.95
2018-10-11T22:29:37.245Z,95.40
2018-10-11T22:32:06.889Z,95.24
2018-10-11T22:34:36.543Z,94.35
2018-10-11T22:37:06.218Z,94.68
2018-10-11T22:39:35.969Z,93.61
2018-10-11T22:42:05.740Z,93.98
2018-10-11T22:44:35.536Z,94.26
2018-10-11T22:47:05.188Z,93.88
2018-10-11T22:49:34.826Z,94.31
2018-10-11T22:52:04.515Z,93.83
2018-10-11T22:54:34.275Z,94.12
2018-10-11T22:57:03.968Z,93.84
2018-10-11T22:59:33.644Z,93.80
2018-10-11T23:02:03.339Z,93.63
2018-10-11T23:04:33.098Z,93.88
2018-10-11T23:07:02.828Z,92.93
2018-10-11T23:09:32.518Z,94.68
2018-10-11T23:12:02.256Z,95.09
2018-10-11T23:14:32.057Z,94.84
2018-10-11T23:17:01.680Z,94.89
2018-10-11T23:19:31.387Z,95.07
2018-10-11T23:22:01.253Z,94.59
2018-10-11T23:24:30.936Z,95.55
2018-10-11T23:27:00.606Z,94.90
2018-10-11T23:29:30.285Z,96.03
2018-10-11T23:31:59.901Z,95.11
2018-10-11T23:34:29.520Z,96.34
2018-10-11T23:36:59.314Z,95.46
2018-10-11T23:39:29.084Z,95.24
2018-10-11T23:41:58.947Z,96.86
2018-10-11T23:44:28.743Z,96.98
2018-10-11T23:46:58.496Z,97.41
2018-10-11T23:49:28.342Z,97.59
2018-10-11T23:51:57.919Z,98.41
2018-10-11T23:54:27.651Z,99.23
2018-10-11T23:56:57.349Z,99.31
2018-10-11T23:59:27.089Z,98.61
